createdAt,value
2022-09-25T00:03:52.942Z,12.48
2022-09-25T00:08:56.819Z,12.33
2022-09-25T00:14:02.162Z,12.30
2022-09-25T00:19:22.603Z,12.18
2022-09-25T00:24:25.310Z,12.08
2022-09-25T00:29:30.466Z,12.02
2022-09-25T00:34:33.362Z,11.99
2022-09-25T00:39:35.996Z,12.04
2022-09-25T00:44:56.439Z,11.93
2022-09-25T00:49:59.970Z,11.78
2022-09-25T00:55:05.264Z,11.71
2022-09-25T01:00:12.655Z,11.57
2022-09-25T01:05:17.752Z,11.47
2022-09-25T01:10:21.774Z,11.45
2022-09-25T01:15:30.718Z,11.44
2022-09-25T01:20:56.365Z,11.41
2022-09-25T01:26:15.445Z,11.49
2022-09-25T01:31:26.179Z,11.51
2022-09-25T01:36:30.661Z,11.46
2022-09-25T01:41:36.925Z,11.39
2022-09-25T01:46:44.025Z,11.38
2022-09-25T01:51:49.443Z,11.42
2022-09-25T01:56:56.670Z,11.36
2022-09-25T02:02:02.650Z,11.31
2022-09-25T02:07:09.947Z,11.22
2022-09-25T02:12:15.323Z,11.16
2022-09-25T02:17:38.106Z,11.10
2022-09-25T02:22:40.751Z,11.06
2022-09-25T02:27:43.867Z,11.03
2022-09-25T02:32:47.799Z,11.03
2022-09-25T02:37:50.427Z,10.98
2022-09-25T02:42:59.626Z,11.04
2022-09-25T02:48:10.345Z,11.09
2022-09-25T02:53:24.032Z,10.96
2022-09-25T02:58:29.675Z,10.95
2022-09-25T03:03:34.773Z,11.04
2022-09-25T03:08:39.488Z,10.98
2022-09-25T03:13:42.689Z,10.86
2022-09-25T03:18:46.766Z,10.89
2022-09-25T03:23:56.884Z,10.90
2022-09-25T03:29:02.069Z,10.51
2022-09-25T03:34:06.115Z,10.58
2022-09-25T03:39:10.686Z,10.74
2022-09-25T03:44:13.581Z,10.94
2022-09-25T03:49:17.554Z,10.90
2022-09-25T03:54:20.261Z,10.90
2022-09-25T03:59:22.896Z,10.90
2022-09-25T04:04:26.886Z,10.91
2022-09-25T04:09:29.545Z,10.92
2022-09-25T04:14:32.114Z,10.99
2022-09-25T04:19:36.017Z,10.97
2022-09-25T04:24:50.660Z,10.95
2022-09-25T04:29:53.264Z,10.93
2022-09-25T04:34:58.277Z,10.96
2022-09-25T04:40:00.908Z,11.00
2022-09-25T04:45:04.025Z,11.00
2022-09-25T04:50:09.057Z,11.01
2022-09-25T04:55:11.891Z,10.97
2022-09-25T05:00:17.089Z,10.96
2022-09-25T05:05:21.285Z,10.99
2022-09-25T05:10:27.224Z,11.02
2022-09-25T05:15:31.643Z,11.05
2022-09-25T05:20:36.280Z,11.00
2022-09-25T05:25:39.212Z,10.97
2022-09-25T05:30:43.547Z,11.04
2022-09-25T05:35:48.522Z,11.07
2022-09-25T05:40:51.424Z,11.16
2022-09-25T05:45:55.482Z,11.18
2022-09-25T05:50:59.831Z,11.33
2022-09-25T05:56:03.785Z,11.16
2022-09-25T06:01:07.532Z,11.21
2022-09-25T06:06:11.470Z,11.40
2022-09-25T06:11:14.081Z,11.52
2022-09-25T06:16:19.327Z,11.48
2022-09-25T06:21:23.918Z,11.44
2022-09-25T06:26:29.636Z,11.51
2022-09-25T06:31:32.720Z,11.57
2022-09-25T06:36:36.832Z,11.69
2022-09-25T06:41:40.142Z,11.79
2022-09-25T06:46:45.081Z,11.88
2022-09-25T06:51:50.947Z,11.98
2022-09-25T06:56:53.621Z,11.91
2022-09-25T07:02:16.649Z,11.89
2022-09-25T07:07:21.104Z,12.01
2022-09-25T07:12:23.953Z,12.24
2022-09-25T07:17:28.791Z,12.34
2022-09-25T07:22:36.156Z,12.50
2022-09-25T07:27:38.959Z,12.52
2022-09-25T07:32:44.843Z,12.59
2022-09-25T07:37:48.816Z,12.65
2022-09-25T07:42:52.041Z,12.70
2022-09-25T07:47:57.110Z,12.72
2022-09-25T07:53:01.501Z,12.88
2022-09-25T07:58:04.337Z,13.00
2022-09-25T08:03:07.307Z,13.10
2022-09-25T08:08:11.305Z,13.22
2022-09-25T08:13:14.270Z,13.35
2022-09-25T08:18:16.862Z,13.42
2022-09-25T08:23:20.805Z,13.54
2022-09-25T08:28:23.489Z,13.58
2022-09-25T08:33:26.414Z,13.71
2022-09-25T08:38:32.699Z,13.85
2022-09-25T08:43:37.610Z,13.94
2022-09-25T08:49:02.183Z,14.09
2022-09-25T08:54:06.654Z,14.25
2022-09-25T08:59:21.276Z,14.31
2022-09-25T09:04:27.757Z,14.27
2022-09-25T09:09:35.950Z,14.26
2022-09-25T09:14:43.862Z,14.35
2022-09-25T09:19:48.342Z,14.46
2022-09-25T09:24:56.412Z,14.50
2022-09-25T09:30:11.230Z,14.51
2022-09-25T09:35:23.969Z,14.52
2022-09-25T09:40:47.138Z,14.64
2022-09-25T09:45:53.990Z,14.80
2022-09-25T09:51:00.982Z,14.75
2022-09-25T09:56:09.341Z,14.80
2022-09-25T10:01:36.695Z,14.94
2022-09-25T10:06:39.301Z,15.17
2022-09-25T10:11:45.570Z,15.33
2022-09-25T10:16:48.684Z,15.42
2022-09-25T10:21:54.350Z,15.60
2022-09-25T10:27:13.033Z,15.81
2022-09-25T10:32:17.252Z,15.95
2022-09-25T10:37:22.210Z,16.21
2022-09-25T10:42:47.324Z,16.46
2022-09-25T10:48:08.465Z,16.64
2022-09-25T10:53:28.195Z,16.91
2022-09-25T10:58:36.846Z,17.18
2022-09-25T11:03:58.134Z,17.32
2022-09-25T11:09:11.603Z,17.77
2022-09-25T11:14:28.646Z,18.37
2022-09-25T11:19:33.087Z,24.31
2022-09-25T11:24:50.624Z,26.75
2022-09-25T11:30:03.086Z,26.40
2022-09-25T11:35:19.728Z,26.31
2022-09-25T11:40:49.883Z,26.63
2022-09-25T11:45:59.613Z,28.72
2022-09-25T11:51:09.537Z,28.71
2022-09-25T11:56:23.876Z,28.86
2022-09-25T12:01:34.290Z,25.48
2022-09-25T12:06:49.414Z,24.13
2022-09-25T12:11:56.341Z,25.01
2022-09-25T12:17:04.673Z,28.69
2022-09-25T12:22:11.470Z,28.63
2022-09-25T12:27:26.363Z,27.63
2022-09-25T12:32:40.691Z,27.74
2022-09-25T12:37:46.610Z,26.43
2022-09-25T12:42:54.902Z,26.19
2022-09-25T12:48:12.950Z,26.19
2022-09-25T12:53:30.898Z,26.37
2022-09-25T12:58:45.652Z,26.34
2022-09-25T13:03:54.563Z,25.94
2022-09-25T13:09:03.288Z,25.67
2022-09-25T13:14:09.354Z,24.66
2022-09-25T13:19:26.463Z,23.08
2022-09-25T13:24:29.299Z,21.90
2022-09-25T13:29:38.773Z,21.42
2022-09-25T13:34:43.219Z,22.40
2022-09-25T13:40:04.916Z,22.97
2022-09-25T13:45:36.222Z,22.52
2022-09-25T13:50:51.706Z,22.99
2022-09-25T13:56:25.772Z,23.06
2022-09-25T14:01:35.386Z,23.00
2022-09-25T14:06:41.581Z,23.00
2022-09-25T14:11:52.620Z,22.88
2022-09-25T14:16:58.382Z,22.54
2022-09-25T14:22:04.284Z,21.79
2022-09-25T14:27:19.835Z,21.58
2022-09-25T14:32:54.563Z,21.13
2022-09-25T14:38:15.114Z,20.54
2022-09-25T14:43:40.242Z,20.30
2022-09-25T14:48:46.060Z,20.09
2022-09-25T14:53:53.967Z,21.14
2022-09-25T14:58:59.028Z,22.02
2022-09-25T15:04:04.335Z,22.49
2022-09-25T15:09:29.059Z,25.35
2022-09-25T15:14:31.647Z,27.17
2022-09-25T15:19:36.458Z,28.23
2022-09-25T15:24:41.588Z,27.30
2022-09-25T15:29:46.374Z,22.51
2022-09-25T15:34:49.145Z,20.42
2022-09-25T15:39:54.873Z,19.50
2022-09-25T15:44:58.387Z,18.93
2022-09-25T15:50:01.331Z,18.65
2022-09-25T15:55:08.174Z,18.38
2022-09-25T16:00:36.194Z,18.13
2022-09-25T16:05:45.380Z,17.89
2022-09-25T16:10:50.404Z,17.77
2022-09-25T16:15:54.465Z,17.78
2022-09-25T16:20:59.378Z,17.61
2022-09-25T16:26:03.701Z,17.42
2022-09-25T16:31:08.314Z,17.29
2022-09-25T16:36:17.682Z,17.11
2022-09-25T16:41:23.094Z,16.95
2022-09-25T16:46:25.806Z,16.81
2022-09-25T16:51:30.006Z,16.70
2022-09-25T16:56:48.075Z,16.55
2022-09-25T17:01:53.153Z,16.45
2022-09-25T17:06:57.968Z,16.42
2022-09-25T17:12:07.271Z,16.31
2022-09-25T17:17:10.522Z,16.31
2022-09-25T17:22:13.278Z,16.19
2022-09-25T17:27:17.499Z,16.17
2022-09-25T17:32:20.135Z,16.16
2022-09-25T17:37:22.882Z,16.10
2022-09-25T17:42:27.698Z,16.07
2022-09-25T17:47:31.854Z,15.97
2022-09-25T17:52:34.421Z,15.88
2022-09-25T17:57:38.361Z,15.92
2022-09-25T18:02:41.037Z,15.83
2022-09-25T18:07:43.881Z,15.78
2022-09-25T18:12:48.247Z,15.77
2022-09-25T18:17:53.356Z,15.73
2022-09-25T18:22:56.542Z,15.73
2022-09-25T18:28:00.572Z,15.77
2022-09-25T18:33:03.200Z,15.77
2022-09-25T18:38:05.961Z,15.73
2022-09-25T18:43:10.661Z,15.71
2022-09-25T18:48:13.459Z,15.72
2022-09-25T18:53:16.568Z,15.68
2022-09-25T18:58:20.817Z,15.63
2022-09-25T19:03:23.609Z,15.62
2022-09-25T19:08:26.559Z,15.55
2022-09-25T19:13:30.586Z,15.43
2022-09-25T19:18:33.281Z,15.49
2022-09-25T19:23:36.292Z,15.48
2022-09-25T19:28:41.033Z,15.34
2022-09-25T19:33:44.099Z,15.24
2022-09-25T19:38:47.358Z,15.28
2022-09-25T19:43:53.811Z,15.20
2022-09-25T19:48:56.772Z,15.09
2022-09-25T19:53:59.556Z,15.10
2022-09-25T19:59:06.961Z,15.18
2022-09-25T20:04:17.174Z,15.09
2022-09-25T20:09:21.148Z,15.13
2022-09-25T20:14:26.236Z,15.13
2022-09-25T20:19:28.810Z,15.17
2022-09-25T20:24:31.365Z,15.19
2022-09-25T20:29:36.711Z,15.18
2022-09-25T20:34:39.356Z,15.23
2022-09-25T20:39:42.091Z,15.26
2022-09-25T20:44:46.216Z,15.23
2022-09-25T20:49:49.228Z,15.18
2022-09-25T20:54:51.850Z,15.11
2022-09-25T20:59:56.808Z,14.81
2022-09-25T21:04:59.738Z,14.57
2022-09-25T21:10:02.421Z,14.45
2022-09-25T21:15:07.580Z,14.41
2022-09-25T21:20:11.187Z,14.51
2022-09-25T21:25:14.319Z,14.59
2022-09-25T21:30:18.613Z,14.60
2022-09-25T21:35:21.704Z,14.44
2022-09-25T21:40:24.396Z,14.30
2022-09-25T21:45:28.475Z,14.23
2022-09-25T21:50:33.536Z,14.23
2022-09-25T21:55:36.507Z,14.12
2022-09-25T22:00:40.472Z,13.98
2022-09-25T22:05:43.092Z,13.89
2022-09-25T22:10:55.830Z,13.80
2022-09-25T22:16:05.094Z,13.68
2022-09-25T22:21:07.734Z,13.53
2022-09-25T22:26:11.152Z,13.39
2022-09-25T22:31:16.788Z,13.36
2022-09-25T22:36:19.632Z,13.40
2022-09-25T22:41:22.554Z,13.40
2022-09-25T22:46:26.790Z,13.51
2022-09-25T22:51:29.393Z,13.59
2022-09-25T22:56:33.154Z,13.77
2022-09-25T23:01:43.059Z,13.90
2022-09-25T23:06:45.794Z,14.01
2022-09-25T23:11:48.500Z,14.05
2022-09-25T23:16:54.080Z,14.05
2022-09-25T23:21:56.727Z,14.08
2022-09-25T23:26:59.323Z,14.05
2022-09-25T23:32:07.920Z,13.77
2022-09-25T23:37:10.670Z,13.57
2022-09-25T23:42:13.244Z,13.46
2022-09-25T23:47:17.303Z,13.50
2022-09-25T23:52:19.955Z,13.46
2022-09-25T23:57:22.574Z,13.34
